Atlantic Enterprise — WDI8007 — position and weather

sailwx.info

Track history (hours):
 
Tides and Currents Weather Stations Pressure Air Temp Water Temp Dewpoint Dewpoint Depression Visibility Wind Speed Wind Dir Waves Ship Positions

Atlantic Enterprise

Owner: Donjon Marine Co., Inc., Hillside, NJ. More information available from US FCC via Universal Licensing System and Coast Guard Vessel Documentation Center.

Last reported at 2018-Jun-16 13:41 UTC. Time now 2018-Jun-21 23:56 UTC.
Position N 25°30' W 080°02'.

Length 40 m; draft 6.1 m.

Type: Tow > 200 m length. MMSI: 367313240.

Date/timePositionNaut miles runAvg speedWind from/ knotsBaromVisibWave heightAir tempDewpointWater temp
2018-Jun-16 13:41N 25°30' W 080°02'1 8.0
2018-Jun-16 13:30N 25°31' W 080°02'4 8.0
2018-Jun-16 13:00N 25°35' W 080°02'4 7.9
2018-Jun-16 12:30N 25°39' W 080°02'4 7.8
2018-Jun-16 12:00N 25°43' W 080°02'4 7.7
2018-Jun-16 11:30N 25°47' W 080°02'4 7.8
2018-Jun-16 11:00N 25°51' W 080°01'4 7.9
2018-Jun-16 10:30N 25°55' W 080°01'4 8.0
2018-Jun-16 10:00N 25°59' W 080°00'4 7.9
2018-Jun-16 09:30N 26°03' W 080°00'4 8.7
2018-Jun-16 09:00N 26°07' W 080°00'5 9.5
2018-Jun-16 08:30N 26°12' W 079°60'5 9.9
2018-Jun-16 07:59N 26°17' W 079°59'5 9.9
2018-Jun-16 07:30N 26°22' W 079°59'5 9.8
2018-Jun-16 07:00N 26°27' W 079°58'13 9.1
2018-Jun-16 05:33N 26°40' W 079°58'0 9.2
2018-Jun-16 05:30N 26°40' W 079°58'13 8.9
2018-Jun-16 04:02N 26°54' W 079°59'0 8.7
2018-Jun-16 04:00N 26°54' W 079°59'5 9.4
2018-Jun-16 03:30N 26°58' W 080°01'  
2018-Jun-12 22:35N 38°38' W 074°32'310.9
2018-Jun-12 22:21N 38°40' W 074°31'411.0
2018-Jun-12 22:01N 38°44' W 074°29'5611.3
2018-Jun-12 17:06N 39°35' W 074°01'611.5
2018-Jun-12 16:33N 39°41' W 073°58'111.4
2018-Jun-12 16:30N 39°42' W 073°58'5210.8
2018-Jun-12 11:42N 40°33' W 074°02'210.5
2018-Jun-12 11:27N 40°36' W 074°03'4 8.3
2018-Jun-12 10:59N 40°39' W 074°06'2 4.6
2018-Jun-12 10:28N 40°40' W 074°08'2 0.1
2018-Jun-11 19:56N 40°42' W 074°08'0 0.0
2018-Jun-11 19:26N 40°42' W 074°08'0 0.0
2018-Jun-11 18:56N 40°42' W 074°08'0 0.0
2018-Jun-11 18:20N 40°42' W 074°08'0 0.0
2018-Jun-11 17:56N 40°42' W 074°08'0 0.0
2018-Jun-10 23:58N 40°41' W 074°08'0 0.0
2018-Jun-10 18:58N 40°41' W 074°08'0 0.0
2018-Jun-10 11:19N 40°41' W 074°08'0 0.0
2018-Jun-10 11:00N 40°41' W 074°08'0 0.0
2018-Jun-10 08:56N 40°41' W 074°08'0 0.0
2018-Jun-10 03:25N 40°41' W 074°08'0 0.0
2018-Jun-10 02:44N 40°41' W 074°08'0 0.0
2018-Jun-10 01:59N 40°41' W 074°08'0 0.0
2018-Jun-10 01:17N 40°41' W 074°08'0 0.0
2018-Jun-09 23:17N 40°41' W 074°08'0 0.0
2018-Jun-09 22:59N 40°41' W 074°08'0 0.0
2018-Jun-09 22:28N 40°41' W 074°08'0 0.0
2018-Jun-09 21:58N 40°41' W 074°08'0 0.0
2018-Jun-09 21:30N 40°41' W 074°08'0 0.0
2018-Jun-09 21:00N 40°41' W 074°08'0 0.0
2018-Jun-09 20:29N 40°41' W 074°08'0 0.0
2018-Jun-09 20:00N 40°41' W 074°08'0 0.0
2018-Jun-09 19:29N 40°41' W 074°08'0 0.0
2018-Jun-09 18:59N 40°41' W 074°08'0 0.0
2018-Jun-09 18:30N 40°41' W 074°08'0 0.0
2018-Jun-09 18:00N 40°41' W 074°08'0 0.0
2018-Jun-09 17:30N 40°41' W 074°08'0 0.0
2018-Jun-09 16:35N 40°41' W 074°08'0 0.0
2018-Jun-09 16:24N 40°41' W 074°08'0 0.0
2018-Jun-09 15:56N 40°41' W 074°08'0 0.0
2018-Jun-09 14:59N 40°41' W 074°08'0 0.0
2018-Jun-09 14:30N 40°41' W 074°08'0 0.0
2018-Jun-09 13:58N 40°41' W 074°08'0 0.0
2018-Jun-09 13:26N 40°41' W 074°08'0 0.0
2018-Jun-09 12:59N 40°41' W 074°08'0 0.0
2018-Jun-09 12:15N 40°41' W 074°08'0 0.0
2018-Jun-09 12:00N 40°41' W 074°08'0 0.0
2018-Jun-09 11:29N 40°41' W 074°08'0 0.0
2018-Jun-09 10:56N 40°41' W 074°08'0 0.0
2018-Jun-09 10:30N 40°41' W 074°08'0 0.0
2018-Jun-09 09:59N 40°41' W 074°08'0 0.0
2018-Jun-09 09:29N 40°41' W 074°08'0 0.0
2018-Jun-09 09:00N 40°41' W 074°08'0 0.0
2018-Jun-09 08:30N 40°41' W 074°08'0 0.0
2018-Jun-09 08:00N 40°41' W 074°08'0 0.0
2018-Jun-09 07:30N 40°41' W 074°08'0 0.0
2018-Jun-09 07:00N 40°41' W 074°08'0 0.0
2018-Jun-09 06:30N 40°41' W 074°08'0 0.0
2018-Jun-09 06:00N 40°41' W 074°08'0 0.0
2018-Jun-09 05:30N 40°41' W 074°08'0 0.0
2018-Jun-09 05:00N 40°41' W 074°08'0 0.0
2018-Jun-09 04:30N 40°41' W 074°08'0 0.0
2018-Jun-09 04:00N 40°41' W 074°08'0 0.0
2018-Jun-09 03:27N 40°41' W 074°08'0 0.0
2018-Jun-09 03:00N 40°41' W 074°08'0 0.0
2018-Jun-09 02:30N 40°41' W 074°08'0 0.0
2018-Jun-09 01:24N 40°41' W 074°08'0 0.0
2018-Jun-09 00:53N 40°41' W 074°08'0 0.0
2018-Jun-09 00:30N 40°41' W 074°08'0 0.0
2018-Jun-09 00:00N 40°41' W 074°08'0 0.0
2018-Jun-08 23:30N 40°41' W 074°08'0 0.0
2018-Jun-08 23:00N 40°41' W 074°08'0 0.0
2018-Jun-08 22:30N 40°41' W 074°08'0 0.0
2018-Jun-08 22:00N 40°41' W 074°08'0 0.0
2018-Jun-08 21:30N 40°41' W 074°08'0 0.0
2018-Jun-08 20:59N 40°41' W 074°08'0 0.0
2018-Jun-08 20:30N 40°41' W 074°08'0 0.2
2018-Jun-08 20:00N 40°41' W 074°08'0 0.0
2018-Jun-08 19:30N 40°41' W 074°08'0 0.0
2018-Jun-08 19:00N 40°41' W 074°08'0 0.0
2018-Jun-08 18:27N 40°41' W 074°08'0 0.0
2018-Jun-08 18:00N 40°41' W 074°08'0 0.0
2018-Jun-08 17:30N 40°41' W 074°08'0 0.0
2018-Jun-08 16:57N 40°41' W 074°08'0 0.0
2018-Jun-08 16:30N 40°41' W 074°08'0 0.0
2018-Jun-08 16:00N 40°41' W 074°08'0 0.0
2018-Jun-08 15:28N 40°41' W 074°08'0 0.1
2018-Jun-08 14:59N 40°41' W 074°08'0 0.0
2018-Jun-08 14:21N 40°41' W 074°08'0 0.3
2018-Jun-08 13:50N 40°41' W 074°08'0 0.0
2018-Jun-08 13:27N 40°41' W 074°08'0 0.0
2018-Jun-08 12:58N 40°41' W 074°08'0 0.0
2018-Jun-08 12:23N 40°41' W 074°08'0 0.0
2018-Jun-08 12:00N 40°41' W 074°08'0 0.0
2018-Jun-08 11:30N 40°41' W 074°08'0 0.0
2018-Jun-08 10:56N 40°41' W 074°08'0 0.0
2018-Jun-08 10:28N 40°41' W 074°08'0 0.0
2018-Jun-08 09:40N 40°41' W 074°08'0 0.0
2018-Jun-08 09:28N 40°41' W 074°08'0 0.0
2018-Jun-08 08:48N 40°41' W 074°08'0 0.0
2018-Jun-08 08:30N 40°41' W 074°08'0 0.0
2018-Jun-08 07:58N 40°41' W 074°08'0 0.0
2018-Jun-08 07:30N 40°41' W 074°08'0 0.0
2018-Jun-08 06:57N 40°41' W 074°08'0 0.0
2018-Jun-08 06:30N 40°41' W 074°08'0 0.0
2018-Jun-08 06:00N 40°41' W 074°08'3 5.3
2018-Jun-08 05:28N 40°39' W 074°09'2 0.7
2018-Jun-08 03:16N 40°39' W 074°07'0 0.0
2018-Jun-07 21:09N 40°39' W 074°07'0 2.5
2018-Jun-07 21:00N 40°39' W 074°07'3 0.8
2018-Jun-07 17:21N 40°41' W 074°08'0 0.4
2018-Jun-07 17:00N 40°41' W 074°08'0 0.0
2018-Jun-07 16:30N 40°41' W 074°08'0 0.0
2018-Jun-07 16:00N 40°41' W 074°08'0 0.0
2018-Jun-07 15:30N 40°41' W 074°08'0 0.0
2018-Jun-07 15:00N 40°41' W 074°08'0 0.0
2018-Jun-07 14:30N 40°41' W 074°08'0 0.0
2018-Jun-07 14:00N 40°41' W 074°08'0 0.0
2018-Jun-07 13:30N 40°41' W 074°08'0 0.0
2018-Jun-07 13:00N 40°41' W 074°08'0 0.0
2018-Jun-07 12:30N 40°41' W 074°08'0 0.5
2018-Jun-07 12:00N 40°41' W 074°08'0 0.0
2018-Jun-07 11:30N 40°41' W 074°08'0 0.0
2018-Jun-07 11:00N 40°41' W 074°08'0 0.0
2018-Jun-07 10:30N 40°41' W 074°08'0 0.0
2018-Jun-07 10:00N 40°41' W 074°08'0 0.0
2018-Jun-07 09:30N 40°41' W 074°08'0 0.0
2018-Jun-07 09:00N 40°41' W 074°08'0 0.0
2018-Jun-07 08:28N 40°41' W 074°08'0 0.0
2018-Jun-07 08:00N 40°41' W 074°08'0 0.0
2018-Jun-07 07:30N 40°41' W 074°08'0 0.0
2018-Jun-07 07:00N 40°41' W 074°08'0 0.0
2018-Jun-07 06:30N 40°41' W 074°08'0 0.0
2018-Jun-07 06:00N 40°41' W 074°08'0 0.0
2018-Jun-07 05:29N 40°41' W 074°08'0 0.0
2018-Jun-07 05:00N 40°41' W 074°08'0 0.0
2018-Jun-07 04:30N 40°41' W 074°08'0 0.0
2018-Jun-07 04:00N 40°42' W 074°08'0 0.0
2018-Jun-07 03:30N 40°41' W 074°08'0 0.0
2018-Jun-07 03:00N 40°41' W 074°08'0 0.0
2018-Jun-07 02:30N 40°41' W 074°08'0 0.0
2018-Jun-07 02:00N 40°41' W 074°08'0 0.0
2018-Jun-07 01:30N 40°41' W 074°08'0 0.0
2018-Jun-07 01:00N 40°41' W 074°08'0 0.0
2018-Jun-07 00:29N 40°41' W 074°08'0 0.0
2018-Jun-07 00:00N 40°41' W 074°08'0 0.0
2018-Jun-06 23:30N 40°41' W 074°08'0 0.0
2018-Jun-06 23:00N 40°41' W 074°08'0 0.1
2018-Jun-06 20:22N 40°41' W 074°08'0 0.0
2018-Jun-06 20:00N 40°41' W 074°08'0 0.0
2018-Jun-06 19:25N 40°41' W 074°08'0 0.0
2018-Jun-06 18:50N 40°41' W 074°08'0 0.0
2018-Jun-06 18:30N 40°41' W 074°08'0 0.4
2018-Jun-06 18:00N 40°41' W 074°08'0 0.0
2018-Jun-06 17:30N 40°41' W 074°08'0 0.0
2018-Jun-06 17:00N 40°41' W 074°08'0 0.0
2018-Jun-06 16:29N 40°41' W 074°08'0 0.0
2018-Jun-06 16:00N 40°41' W 074°08'0 0.0
2018-Jun-06 15:30N 40°41' W 074°08'0 0.0
2018-Jun-06 15:00N 40°41' W 074°08'0 0.0
2018-Jun-06 14:30N 40°41' W 074°08'0 0.0
2018-Jun-06 14:00N 40°41' W 074°08'  
Track history (hours):
 
Tides and Currents Weather Stations Pressure Air Temp Water Temp Dewpoint Dewpoint Depression Visibility Wind Speed Wind Dir Waves Ship Positions

Atlantic Enterprise

Owner: Donjon Marine Co., Inc., Hillside, NJ. More information available from US FCC via Universal Licensing System and Coast Guard Vessel Documentation Center.

Last reported at 2018-Jun-16 13:41 UTC. Time now 2018-Jun-21 23:56 UTC.
Position N 25°30' W 080°02'.

Length 40 m; draft 6.1 m.

Type: Tow > 200 m length. MMSI: 367313240.

Date/timePositionNaut miles runAvg speedWind from/ knotsBaromVisibWave heightAir tempDewpointWater temp
2018-Jun-16 13:41N 25°30' W 080°02'1 8.0
2018-Jun-16 13:30N 25°31' W 080°02'4 8.0
2018-Jun-16 13:00N 25°35' W 080°02'4 7.9
2018-Jun-16 12:30N 25°39' W 080°02'4 7.8
2018-Jun-16 12:00N 25°43' W 080°02'4 7.7
2018-Jun-16 11:30N 25°47' W 080°02'4 7.8
2018-Jun-16 11:00N 25°51' W 080°01'4 7.9
2018-Jun-16 10:30N 25°55' W 080°01'4 8.0
2018-Jun-16 10:00N 25°59' W 080°00'4 7.9
2018-Jun-16 09:30N 26°03' W 080°00'4 8.7
2018-Jun-16 09:00N 26°07' W 080°00'5 9.5
2018-Jun-16 08:30N 26°12' W 079°60'5 9.9
2018-Jun-16 07:59N 26°17' W 079°59'5 9.9
2018-Jun-16 07:30N 26°22' W 079°59'5 9.8
2018-Jun-16 07:00N 26°27' W 079°58'13 9.1
2018-Jun-16 05:33N 26°40' W 079°58'0 9.2
2018-Jun-16 05:30N 26°40' W 079°58'13 8.9
2018-Jun-16 04:02N 26°54' W 079°59'0 8.7
2018-Jun-16 04:00N 26°54' W 079°59'5 9.4
2018-Jun-16 03:30N 26°58' W 080°01'  
2018-Jun-12 22:35N 38°38' W 074°32'310.9
2018-Jun-12 22:21N 38°40' W 074°31'411.0
2018-Jun-12 22:01N 38°44' W 074°29'5611.3
2018-Jun-12 17:06N 39°35' W 074°01'611.5
2018-Jun-12 16:33N 39°41' W 073°58'111.4
2018-Jun-12 16:30N 39°42' W 073°58'5210.8
2018-Jun-12 11:42N 40°33' W 074°02'210.5
2018-Jun-12 11:27N 40°36' W 074°03'4 8.3
2018-Jun-12 10:59N 40°39' W 074°06'2 4.6
2018-Jun-12 10:28N 40°40' W 074°08'2 0.1
2018-Jun-11 19:56N 40°42' W 074°08'0 0.0
2018-Jun-11 19:26N 40°42' W 074°08'0 0.0
2018-Jun-11 18:56N 40°42' W 074°08'0 0.0
2018-Jun-11 18:20N 40°42' W 074°08'0 0.0
2018-Jun-11 17:56N 40°42' W 074°08'0 0.0
2018-Jun-10 23:58N 40°41' W 074°08'0 0.0
2018-Jun-10 18:58N 40°41' W 074°08'0 0.0
2018-Jun-10 11:19N 40°41' W 074°08'0 0.0
2018-Jun-10 11:00N 40°41' W 074°08'0 0.0
2018-Jun-10 08:56N 40°41' W 074°08'0 0.0
2018-Jun-10 03:25N 40°41' W 074°08'0 0.0
2018-Jun-10 02:44N 40°41' W 074°08'0 0.0
2018-Jun-10 01:59N 40°41' W 074°08'0 0.0
2018-Jun-10 01:17N 40°41' W 074°08'0 0.0
2018-Jun-09 23:17N 40°41' W 074°08'0 0.0
2018-Jun-09 22:59N 40°41' W 074°08'0 0.0
2018-Jun-09 22:28N 40°41' W 074°08'0 0.0
2018-Jun-09 21:58N 40°41' W 074°08'0 0.0
2018-Jun-09 21:30N 40°41' W 074°08'0 0.0
2018-Jun-09 21:00N 40°41' W 074°08'0 0.0
2018-Jun-09 20:29N 40°41' W 074°08'0 0.0
2018-Jun-09 20:00N 40°41' W 074°08'0 0.0
2018-Jun-09 19:29N 40°41' W 074°08'0 0.0
2018-Jun-09 18:59N 40°41' W 074°08'0 0.0
2018-Jun-09 18:30N 40°41' W 074°08'0 0.0
2018-Jun-09 18:00N 40°41' W 074°08'0 0.0
2018-Jun-09 17:30N 40°41' W 074°08'0 0.0
2018-Jun-09 16:35N 40°41' W 074°08'0 0.0
2018-Jun-09 16:24N 40°41' W 074°08'0 0.0
2018-Jun-09 15:56N 40°41' W 074°08'0 0.0
2018-Jun-09 14:59N 40°41' W 074°08'0 0.0
2018-Jun-09 14:30N 40°41' W 074°08'0 0.0
2018-Jun-09 13:58N 40°41' W 074°08'0 0.0
2018-Jun-09 13:26N 40°41' W 074°08'0 0.0
2018-Jun-09 12:59N 40°41' W 074°08'0 0.0
2018-Jun-09 12:15N 40°41' W 074°08'0 0.0
2018-Jun-09 12:00N 40°41' W 074°08'0 0.0
2018-Jun-09 11:29N 40°41' W 074°08'0 0.0
2018-Jun-09 10:56N 40°41' W 074°08'0 0.0
2018-Jun-09 10:30N 40°41' W 074°08'0 0.0
2018-Jun-09 09:59N 40°41' W 074°08'0 0.0
2018-Jun-09 09:29N 40°41' W 074°08'0 0.0
2018-Jun-09 09:00N 40°41' W 074°08'0 0.0
2018-Jun-09 08:30N 40°41' W 074°08'0 0.0
2018-Jun-09 08:00N 40°41' W 074°08'0 0.0
2018-Jun-09 07:30N 40°41' W 074°08'0 0.0
2018-Jun-09 07:00N 40°41' W 074°08'0 0.0
2018-Jun-09 06:30N 40°41' W 074°08'0 0.0
2018-Jun-09 06:00N 40°41' W 074°08'0 0.0
2018-Jun-09 05:30N 40°41' W 074°08'0 0.0
2018-Jun-09 05:00N 40°41' W 074°08'0 0.0
2018-Jun-09 04:30N 40°41' W 074°08'0 0.0
2018-Jun-09 04:00N 40°41' W 074°08'0 0.0
2018-Jun-09 03:27N 40°41' W 074°08'0 0.0
2018-Jun-09 03:00N 40°41' W 074°08'0 0.0
2018-Jun-09 02:30N 40°41' W 074°08'0 0.0
2018-Jun-09 01:24N 40°41' W 074°08'0 0.0
2018-Jun-09 00:53N 40°41' W 074°08'0 0.0
2018-Jun-09 00:30N 40°41' W 074°08'0 0.0
2018-Jun-09 00:00N 40°41' W 074°08'0 0.0
2018-Jun-08 23:30N 40°41' W 074°08'0 0.0
2018-Jun-08 23:00N 40°41' W 074°08'0 0.0
2018-Jun-08 22:30N 40°41' W 074°08'0 0.0
2018-Jun-08 22:00N 40°41' W 074°08'0 0.0
2018-Jun-08 21:30N 40°41' W 074°08'0 0.0
2018-Jun-08 20:59N 40°41' W 074°08'0 0.0
2018-Jun-08 20:30N 40°41' W 074°08'0 0.2
2018-Jun-08 20:00N 40°41' W 074°08'0 0.0
2018-Jun-08 19:30N 40°41' W 074°08'0 0.0
2018-Jun-08 19:00N 40°41' W 074°08'0 0.0
2018-Jun-08 18:27N 40°41' W 074°08'0 0.0
2018-Jun-08 18:00N 40°41' W 074°08'0 0.0
2018-Jun-08 17:30N 40°41' W 074°08'0 0.0
2018-Jun-08 16:57N 40°41' W 074°08'0 0.0
2018-Jun-08 16:30N 40°41' W 074°08'0 0.0
2018-Jun-08 16:00N 40°41' W 074°08'0 0.0
2018-Jun-08 15:28N 40°41' W 074°08'0 0.1
2018-Jun-08 14:59N 40°41' W 074°08'0 0.0
2018-Jun-08 14:21N 40°41' W 074°08'0 0.3
2018-Jun-08 13:50N 40°41' W 074°08'0 0.0
2018-Jun-08 13:27N 40°41' W 074°08'0 0.0
2018-Jun-08 12:58N 40°41' W 074°08'0 0.0
2018-Jun-08 12:23N 40°41' W 074°08'0 0.0
2018-Jun-08 12:00N 40°41' W 074°08'0 0.0
2018-Jun-08 11:30N 40°41' W 074°08'0 0.0
2018-Jun-08 10:56N 40°41' W 074°08'0 0.0
2018-Jun-08 10:28N 40°41' W 074°08'0 0.0
2018-Jun-08 09:40N 40°41' W 074°08'0 0.0
2018-Jun-08 09:28N 40°41' W 074°08'0 0.0
2018-Jun-08 08:48N 40°41' W 074°08'0 0.0
2018-Jun-08 08:30N 40°41' W 074°08'0 0.0
2018-Jun-08 07:58N 40°41' W 074°08'0 0.0
2018-Jun-08 07:30N 40°41' W 074°08'0 0.0
2018-Jun-08 06:57N 40°41' W 074°08'0 0.0
2018-Jun-08 06:30N 40°41' W 074°08'0 0.0
2018-Jun-08 06:00N 40°41' W 074°08'3 5.3
2018-Jun-08 05:28N 40°39' W 074°09'2 0.7
2018-Jun-08 03:16N 40°39' W 074°07'0 0.0
2018-Jun-07 21:09N 40°39' W 074°07'0 2.5
2018-Jun-07 21:00N 40°39' W 074°07'3 0.8
2018-Jun-07 17:21N 40°41' W 074°08'0 0.4
2018-Jun-07 17:00N 40°41' W 074°08'0 0.0
2018-Jun-07 16:30N 40°41' W 074°08'0 0.0
2018-Jun-07 16:00N 40°41' W 074°08'0 0.0
2018-Jun-07 15:30N 40°41' W 074°08'0 0.0
2018-Jun-07 15:00N 40°41' W 074°08'0 0.0
2018-Jun-07 14:30N 40°41' W 074°08'0 0.0
2018-Jun-07 14:00N 40°41' W 074°08'0 0.0
2018-Jun-07 13:30N 40°41' W 074°08'0 0.0
2018-Jun-07 13:00N 40°41' W 074°08'0 0.0
2018-Jun-07 12:30N 40°41' W 074°08'0 0.5
2018-Jun-07 12:00N 40°41' W 074°08'0 0.0
2018-Jun-07 11:30N 40°41' W 074°08'0 0.0
2018-Jun-07 11:00N 40°41' W 074°08'0 0.0
2018-Jun-07 10:30N 40°41' W 074°08'0 0.0
2018-Jun-07 10:00N 40°41' W 074°08'0 0.0
2018-Jun-07 09:30N 40°41' W 074°08'0 0.0
2018-Jun-07 09:00N 40°41' W 074°08'0 0.0
2018-Jun-07 08:28N 40°41' W 074°08'0 0.0
2018-Jun-07 08:00N 40°41' W 074°08'0 0.0
2018-Jun-07 07:30N 40°41' W 074°08'0 0.0
2018-Jun-07 07:00N 40°41' W 074°08'0 0.0
2018-Jun-07 06:30N 40°41' W 074°08'0 0.0
2018-Jun-07 06:00N 40°41' W 074°08'0 0.0
2018-Jun-07 05:29N 40°41' W 074°08'0 0.0
2018-Jun-07 05:00N 40°41' W 074°08'0 0.0
2018-Jun-07 04:30N 40°41' W 074°08'0 0.0
2018-Jun-07 04:00N 40°42' W 074°08'0 0.0
2018-Jun-07 03:30N 40°41' W 074°08'0 0.0
2018-Jun-07 03:00N 40°41' W 074°08'0 0.0
2018-Jun-07 02:30N 40°41' W 074°08'0 0.0
2018-Jun-07 02:00N 40°41' W 074°08'0 0.0
2018-Jun-07 01:30N 40°41' W 074°08'0 0.0
2018-Jun-07 01:00N 40°41' W 074°08'0 0.0
2018-Jun-07 00:29N 40°41' W 074°08'0 0.0
2018-Jun-07 00:00N 40°41' W 074°08'0 0.0
2018-Jun-06 23:30N 40°41' W 074°08'0 0.0
2018-Jun-06 23:00N 40°41' W 074°08'0 0.1
2018-Jun-06 20:22N 40°41' W 074°08'0 0.0
2018-Jun-06 20:00N 40°41' W 074°08'0 0.0
2018-Jun-06 19:25N 40°41' W 074°08'0 0.0
2018-Jun-06 18:50N 40°41' W 074°08'0 0.0
2018-Jun-06 18:30N 40°41' W 074°08'0 0.4
2018-Jun-06 18:00N 40°41' W 074°08'0 0.0
2018-Jun-06 17:30N 40°41' W 074°08'0 0.0
2018-Jun-06 17:00N 40°41' W 074°08'0 0.0
2018-Jun-06 16:29N 40°41' W 074°08'0 0.0
2018-Jun-06 16:00N 40°41' W 074°08'0 0.0
2018-Jun-06 15:30N 40°41' W 074°08'0 0.0
2018-Jun-06 15:00N 40°41' W 074°08'0 0.0
2018-Jun-06 14:30N 40°41' W 074°08'0 0.0
2018-Jun-06 14:00N 40°41' W 074°08'  

Dump ship's entire track history